Terminal Aerodrome Forecast
Issued by NWS Charleston, WV

Home | Current Version | Previous Version | Text Only | Print | Product List | Glossary On
Versions: 1 2 3 4 5 6 7 8 9 10 11 12 13 14 15 16 17 18 19 20 21 22 23 24 25
000
FTUS41 KRLX 011725
TAFCRW
TAF
KCRW 011725Z 0118/0218 25007KT 6SM HZ BKN025
     FM011900 26008KT P6SM SCT030
     FM020300 VRB03KT P6SM -SHRA OVC040
     FM020700 00000KT P6SM OVC020
     FM020800 00000KT 5SM BR BKN015
     FM021500 00000KT P6SM SCT030=

USA.gov is the U.S. government's official web portal to all federal, state and local government web resources and services.